»·PEaware :: N3391T KSNA-KFAT

N3391T :: KSNA-KFAT

FLIGHT INFORMATION

Flight Status: Arrived
Operator: Privately registered:
United States
More flights under this callsign
Pilot: Scott P. (30664)
Aircraft: MCDONNELL-DOUGLAS SKYTRAIN C-47
(DC3)
More flights by this aircraft type
Origin: KSNA John Wayne-Orange Co
United States
Destination: KFAT Fresno Yosemite Intl
United States
More flights between these airports :: More routes between these airports
Route: +
File this flight plan on PilotEdge
Remarks:
Altitude:
(Current/Filed)
6,500ft
Speed:
(Current/Filed)
0kts
Departed: 12-Aug-20 04:44 PM
Arrived: 12-Aug-20 06:12 PM
Distance/Time
Traveled:
207nm/1:28
Distance/Time
To Go:
Arrived

Flight Plot

Page will automatically refresh every two minutes.

Flight plan parsing failed; only flown route is shown


Map Options




Map Legend


Flown Route
Filed Route
Departure Airport
Arrival Airport
Navaid (VOR, NDB)
Fix

Horizontal Profiles

Position Reports

Time Latitude Longitude Heading Altitude Ground
Speed
12-Aug-20 16:31 33.671972 -117.867501 206 64ft 0kts
12-Aug-20 16:32 33.671972 -117.867501 206 64ft 0kts
12-Aug-20 16:33 33.671627 -117.867845 279 64ft 0kts
12-Aug-20 16:34 33.672051 -117.868166 27 64ft 10kts
12-Aug-20 16:35 33.673396 -117.867854 57 64ft 0kts
12-Aug-20 16:36 33.673396 -117.867854 57 64ft 0kts
12-Aug-20 16:37 33.673396 -117.867854 57 64ft 0kts
12-Aug-20 16:38 33.673859 -117.867254 33 64ft 11kts
12-Aug-20 16:39 33.678468 -117.864329 26 64ft 20kts
12-Aug-20 16:40 33.680657 -117.863146 315 64ft 0kts
12-Aug-20 16:41 33.680657 -117.863146 315 64ft 0kts
12-Aug-20 16:42 33.680676 -117.863167 313 64ft 3kts
12-Aug-20 16:43 33.676741 -117.868164 210 77ft 80kts
12-Aug-20 16:44 33.657441 -117.882152 229 1151ft 86kts
12-Aug-20 16:45 33.641877 -117.903250 229 2236ft 89kts
12-Aug-20 16:46 33.623936 -117.929117 231 2785ft 135kts
12-Aug-20 16:47 33.596960 -117.974015 243 2214ft 169kts
12-Aug-20 16:48 33.576906 -118.022999 245 2317ft 168kts
12-Aug-20 16:49 33.568058 -118.068802 255 3230ft 145kts
12-Aug-20 16:50 33.597810 -118.098251 331 4114ft 144kts
12-Aug-20 16:51 33.629977 -118.123249 315 5118ft 136kts
12-Aug-20 16:52 33.655475 -118.149018 316 6152ft 131kts
12-Aug-20 16:53 33.687505 -118.181283 317 6370ft 176kts
12-Aug-20 16:54 33.726840 -118.220603 317 6365ft 187kts
12-Aug-20 16:55 33.766299 -118.260346 316 6361ft 174kts
12-Aug-20 16:56 33.802117 -118.296722 316 6368ft 164kts
12-Aug-20 16:57 33.836844 -118.331969 316 6371ft 162kts
12-Aug-20 16:58 33.871354 -118.367036 317 6375ft 162kts
12-Aug-20 16:59 33.906000 -118.401977 316 6378ft 162kts
12-Aug-20 17:00 33.940135 -118.438087 315 6417ft 161kts
12-Aug-20 17:01 33.978899 -118.466150 326 6472ft 164kts
12-Aug-20 17:02 34.018330 -118.495204 326 6473ft 166kts
12-Aug-20 17:03 34.057823 -118.524945 325 6474ft 167kts
12-Aug-20 17:04 34.097299 -118.554923 325 6474ft 167kts
12-Aug-20 17:05 34.137442 -118.584310 342 6449ft 171kts
12-Aug-20 17:06 34.170134 -118.548742 57 6450ft 170kts
12-Aug-20 17:07 34.203273 -118.509461 40 6925ft 165kts
12-Aug-20 17:08 34.243217 -118.485555 358 7650ft 167kts
12-Aug-20 17:09 34.289310 -118.490369 352 8384ft 166kts
12-Aug-20 17:10 34.334893 -118.498467 349 9092ft 165kts
12-Aug-20 17:11 34.380111 -118.507669 349 9775ft 164kts
12-Aug-20 17:12 34.425288 -118.517271 348 10436ft 164kts
12-Aug-20 17:13 34.472748 -118.527542 348 10479ft 176kts
12-Aug-20 17:14 34.520528 -118.537938 348 10492ft 174kts
12-Aug-20 17:15 34.568513 -118.548414 348 10507ft 174kts
12-Aug-20 17:16 34.616325 -118.558856 348 10512ft 174kts
12-Aug-20 17:17 34.664211 -118.569328 348 10520ft 174kts
12-Aug-20 17:18 34.712223 -118.576348 357 10532ft 174kts
12-Aug-20 17:19 34.759540 -118.586453 345 10569ft 171kts
12-Aug-20 17:20 34.802092 -118.609777 328 10614ft 168kts
12-Aug-20 17:21 34.843056 -118.637465 327 10651ft 168kts
12-Aug-20 17:22 34.883290 -118.665916 326 10680ft 168kts
12-Aug-20 17:23 34.923996 -118.694851 326 10681ft 169kts
12-Aug-20 17:24 34.964752 -118.723499 325 10681ft 168kts
12-Aug-20 17:25 35.005074 -118.751924 325 10718ft 165kts
12-Aug-20 17:26 35.044960 -118.780076 324 10716ft 165kts
12-Aug-20 17:27 35.084869 -118.808295 324 10652ft 167kts
12-Aug-20 17:28 35.125556 -118.836936 325 10571ft 168kts
12-Aug-20 17:29 35.166182 -118.865550 324 10507ft 168kts
12-Aug-20 17:30 35.206610 -118.894154 324 10461ft 168kts
12-Aug-20 17:31 35.246826 -118.922674 324 10460ft 166kts
12-Aug-20 17:32 35.286821 -118.951088 324 10460ft 166kts
12-Aug-20 17:33 35.326973 -118.979643 324 10460ft 166kts
12-Aug-20 17:34 35.367110 -119.008225 324 10460ft 167kts
12-Aug-20 17:36 35.407396 -119.036945 324 10460ft 167kts
12-Aug-20 17:37 35.447719 -119.065725 324 10460ft 167kts
12-Aug-20 17:38 35.488160 -119.094401 324 10458ft 167kts
12-Aug-20 17:39 35.532714 -119.101565 12 10459ft 178kts
12-Aug-20 17:40 35.580991 -119.087445 7 10456ft 178kts
12-Aug-20 17:41 35.629479 -119.075964 6 10454ft 177kts
12-Aug-20 17:42 35.678078 -119.065300 5 10452ft 177kts
12-Aug-20 17:43 35.724810 -119.060637 319 10447ft 164kts
12-Aug-20 17:44 35.755163 -119.101169 308 10461ft 161kts
12-Aug-20 17:45 35.792967 -119.130885 332 10463ft 168kts
12-Aug-20 17:46 35.835709 -119.153961 330 10465ft 168kts
12-Aug-20 17:47 35.873611 -119.175939 329 10466ft 168kts
12-Aug-20 17:48 35.915665 -119.200949 328 10468ft 167kts
12-Aug-20 17:49 35.957787 -119.226247 328 10472ft 168kts
12-Aug-20 17:50 35.999732 -119.251559 328 10478ft 168kts
12-Aug-20 17:51 36.041894 -119.277063 328 10477ft 168kts
12-Aug-20 17:52 36.084177 -119.302681 328 10474ft 169kts
12-Aug-20 17:52 36.119553 -119.324071 329 10470ft 169kts
12-Aug-20 17:54 36.168830 -119.353814 329 10468ft 168kts
12-Aug-20 17:54 36.203839 -119.375059 329 10468ft 168kts
12-Aug-20 17:55 36.247292 -119.401544 329 10055ft 180kts
12-Aug-20 17:57 36.297319 -119.432016 329 9232ft 166kts
12-Aug-20 17:57 36.331350 -119.452808 330 8636ft 163kts
12-Aug-20 17:58 36.369888 -119.481206 324 7923ft 159kts
12-Aug-20 17:59 36.410599 -119.503927 333 7220ft 159kts
12-Aug-20 18:00 36.451173 -119.525687 336 6535ft 158kts
12-Aug-20 18:01 36.492893 -119.546645 335 5897ft 164kts
12-Aug-20 18:02 36.534567 -119.569082 334 5420ft 161kts
12-Aug-20 18:03 36.575735 -119.591858 334 5099ft 161kts
12-Aug-20 18:04 36.616907 -119.614886 334 4605ft 162kts
12-Aug-20 18:05 36.653003 -119.635161 334 3702ft 118kts
12-Aug-20 18:06 36.679652 -119.650210 334 2478ft 100kts
12-Aug-20 18:07 36.704954 -119.665116 332 1538ft 102kts
12-Aug-20 18:08 36.726501 -119.680832 329 1186ft 83kts
12-Aug-20 18:09 36.747234 -119.694186 332 1065ft 83kts
12-Aug-20 18:10 36.766726 -119.705700 322 498ft 76kts
12-Aug-20 18:11 36.773737 -119.717559 246 337ft 11kts
12-Aug-20 18:12 36.773672 -119.717757 245 337ft 0kts
12-Aug-20 18:13 36.773556 -119.718077 259 337ft 0kts
12-Aug-20 18:14 36.774656 -119.720901 211 337ft 14kts
12-Aug-20 18:15 36.773708 -119.721877 36 337ft 0kts

Navigation Log

Ident Type
Flight plan parsing failed, navigation log unavailable